Time;durP1;ratioP1;P1;durP2;ratioP2;P2;SDS_P1;SDS_P2;PMS_P1;PMS_P2;Temp;Humidity;BMP_temperature;BMP_pressure;BME280_temperature;BME280_humidity;BME280_pressure;Samples;Min_cycle;Max_cycle;Signal;HPM_P1;HPM_P2
2024/02/19 00:01:22;;;;;;;0.00;0.00;;;25.60;36.20;;;;;;5013829;28;20530;-40
2024/02/19 00:03:52;;;;;;;0.00;0.00;;;25.60;36.20;;;;;;5014113;28;20193;-40
2024/02/19 00:06:23;;;;;;;0.00;0.00;;;25.50;36.20;;;;;;5013495;28;20192;-40
2024/02/19 00:08:54;;;;;;;0.00;0.00;;;25.60;36.30;;;;;;5006091;28;20648;-40
2024/02/19 00:11:25;;;;;;;0.00;0.00;;;25.60;36.20;;;;;;4994048;28;20549;-40
2024/02/19 00:13:58;;;;;;;0.00;0.00;;;25.60;36.10;;;;;;4993815;28;20201;-40
2024/02/19 00:16:29;;;;;;;0.00;0.00;;;25.60;36.10;;;;;;4993621;28;20208;-41
2024/02/19 00:18:59;;;;;;;0.00;0.00;;;25.60;36.20;;;;;;4993666;28;20584;-40
2024/02/19 00:21:30;;;;;;;0.00;0.00;;;25.60;36.20;;;;;;4993952;28;20205;-40
2024/02/19 00:24:00;;;;;;;0.00;0.00;;;25.60;36.20;;;;;;4993963;28;20558;-43
2024/02/19 00:26:31;;;;;;;0.00;0.00;;;25.60;36.20;;;;;;4993681;28;20709;-42
2024/02/19 00:29:04;;;;;;;0.00;0.00;;;25.60;36.20;;;;;;4994282;28;20689;-40
2024/02/19 00:31:35;;;;;;;0.00;0.00;;;25.60;36.10;;;;;;4992692;28;20193;-40
2024/02/19 00:34:06;;;;;;;0.00;0.00;;;25.60;36.10;;;;;;4993288;28;20198;-40
2024/02/19 00:36:37;;;;;;;0.00;0.00;;;25.60;36.80;;;;;;5001459;28;20208;-40
2024/02/19 00:39:08;;;;;;;0.00;0.00;;;25.60;36.20;;;;;;5011573;28;20217;-40
2024/02/19 00:41:38;;;;;;;0.00;0.00;;;25.60;36.20;;;;;;5013192;28;20204;-40
2024/02/19 00:44:12;;;;;;;0.00;0.00;;;25.60;36.10;;;;;;5010228;28;20196;-41
2024/02/19 00:46:42;;;;;;;0.00;0.00;;;25.60;36.10;;;;;;5012871;28;20197;-40
2024/02/19 00:49:13;;;;;;;0.00;0.00;;;25.60;36.00;;;;;;5012094;28;20236;-39
2024/02/19 00:51:44;;;;;;;0.00;0.00;;;25.70;36.10;;;;;;4993045;28;20685;-40
2024/02/19 00:54:15;;;;;;;0.00;0.00;;;25.70;36.10;;;;;;4993272;28;20994;-41
2024/02/19 00:56:45;;;;;;;0.00;0.00;;;25.70;36.10;;;;;;4993363;28;20208;-41
2024/02/19 00:59:18;;;;;;;0.00;0.00;;;25.70;36.20;;;;;;4992954;28;20232;-40
2024/02/19 01:01:49;;;;;;;0.00;0.00;;;25.70;36.20;;;;;;4992801;28;20269;-40
2024/02/19 01:04:19;;;;;;;0.00;0.00;;;25.70;36.20;;;;;;4992445;28;20197;-43
2024/02/19 01:06:50;;;;;;;0.00;0.00;;;25.70;36.30;;;;;;5002192;28;20316;-39
2024/02/19 01:09:21;;;;;;;0.00;0.00;;;25.70;36.30;;;;;;5012326;28;20243;-40
2024/02/19 01:11:51;;;;;;;0.00;0.00;;;25.70;36.40;;;;;;5011683;28;20680;-40
2024/02/19 01:14:24;;;;;;;0.00;0.00;;;25.70;36.40;;;;;;5012652;28;20200;-40
2024/02/19 01:16:54;;;;;;;0.00;0.00;;;25.70;36.40;;;;;;5012682;28;20209;-42
2024/02/19 01:19:25;;;;;;;0.00;0.00;;;25.70;36.50;;;;;;5012192;28;20274;-44
2024/02/19 01:21:56;;;;;;;0.00;0.00;;;25.70;36.50;;;;;;5012149;28;20760;-41
2024/02/19 01:24:26;;;;;;;0.00;0.00;;;25.80;36.60;;;;;;5012223;28;20645;-42
2024/02/19 01:26:57;;;;;;;0.00;0.00;;;25.80;36.60;;;;;;5012121;28;20207;-41
2024/02/19 01:29:30;;;;;;;0.00;0.00;;;25.80;36.70;;;;;;5011282;28;20703;-40
2024/02/19 01:32:00;;;;;;;0.00;0.00;;;25.80;36.70;;;;;;5012209;28;20203;-45
2024/02/19 01:34:31;;;;;;;0.00;0.00;;;25.80;36.70;;;;;;5012240;28;20219;-41
2024/02/19 01:37:04;;;;;;;0.00;0.00;;;25.80;36.70;;;;;;5011917;28;20200;-45
2024/02/19 01:39:35;;;;;;;0.00;0.00;;;25.80;36.70;;;;;;5012002;28;20267;-47
2024/02/19 01:42:05;;;;;;;0.00;0.00;;;25.90;36.80;;;;;;5012042;28;20196;-41
2024/02/19 01:44:39;;;;;;;0.00;0.00;;;25.90;36.90;;;;;;5012364;28;20201;-49
2024/02/19 01:47:11;;;;;;;0.00;0.00;;;25.90;36.90;;;;;;5011819;28;20248;-42
2024/02/19 01:49:42;;;;;;;0.00;0.00;;;25.90;37.10;;;;;;5009431;28;20236;-43
2024/02/19 01:52:12;;;;;;;0.00;0.00;;;25.90;37.00;;;;;;4991936;28;20204;-41
2024/02/19 01:54:43;;;;;;;0.00;0.00;;;25.90;37.10;;;;;;4992283;28;20212;-46
2024/02/19 01:57:14;;;;;;;0.00;0.00;;;25.90;37.10;;;;;;4992162;28;20212;-41
2024/02/19 01:59:49;;;;;;;0.00;0.00;;;25.90;37.20;;;;;;4992143;28;20228;-42
2024/02/19 02:02:21;;;;;;;0.00;0.00;;;25.90;37.20;;;;;;4992165;28;20657;-40
2024/02/19 02:04:53;;;;;;;0.00;0.00;;;25.90;37.30;;;;;;4991527;28;20254;-40
2024/02/19 02:07:24;;;;;;;0.00;0.00;;;26.00;37.40;;;;;;5006122;28;20284;-40
2024/02/19 02:09:56;;;;;;;0.00;0.00;;;26.00;37.40;;;;;;5011297;28;20232;-40
2024/02/19 02:12:27;;;;;;;0.00;0.00;;;26.00;37.40;;;;;;4993473;28;20201;-42
2024/02/19 02:14:59;;;;;;;0.00;0.00;;;26.00;37.50;;;;;;4992107;28;20563;-41
2024/02/19 02:17:30;;;;;;;0.00;0.00;;;26.00;37.50;;;;;;4992120;28;20201;-42
2024/02/19 02:20:01;;;;;;;0.00;0.00;;;26.00;37.50;;;;;;4991862;28;20221;-41
2024/02/19 02:22:31;;;;;;;0.00;0.00;;;26.10;37.60;;;;;;4992077;28;20354;-42
2024/02/19 02:25:05;;;;;;;0.00;0.00;;;26.10;37.60;;;;;;4992035;28;20202;-40
2024/02/19 02:27:37;;;;;;;0.00;0.00;;;26.10;37.60;;;;;;4991818;28;20205;-40
2024/02/19 02:30:09;;;;;;;0.00;0.00;;;26.10;37.70;;;;;;4991245;28;20255;-40
2024/02/19 02:32:40;;;;;;;0.00;0.00;;;26.10;37.70;;;;;;5009343;28;20193;-41
2024/02/19 02:35:10;;;;;;;0.00;0.00;;;26.20;37.80;;;;;;5011573;28;20637;-40
2024/02/19 02:37:41;;;;;;;0.00;0.00;;;26.20;37.80;;;;;;5011486;28;20205;-40
2024/02/19 02:40:15;;;;;;;0.00;0.00;;;26.20;37.80;;;;;;5011379;28;20221;-40
2024/02/19 02:42:48;;;;;;;0.00;0.00;;;26.20;37.90;;;;;;5011718;28;20197;-40
2024/02/19 02:45:19;;;;;;;0.00;0.00;;;26.20;37.90;;;;;;4997462;28;20193;-40
2024/02/19 02:47:49;;;;;;;0.00;0.00;;;26.30;38.00;;;;;;4991590;28;20654;-40
2024/02/19 02:50:20;;;;;;;0.00;0.00;;;26.30;38.10;;;;;;4991566;28;20233;-41
2024/02/19 02:52:51;;;;;;;0.00;0.00;;;26.30;38.10;;;;;;4995222;28;20201;-40
2024/02/19 02:55:21;;;;;;;0.00;0.00;;;26.30;38.10;;;;;;5005773;28;20197;-40
2024/02/19 02:57:54;;;;;;;0.00;0.00;;;26.30;38.10;;;;;;5013242;28;20650;-42
2024/02/19 03:00:26;;;;;;;0.00;0.00;;;26.30;38.20;;;;;;4995312;28;20276;-41
2024/02/19 03:02:56;;;;;;;0.00;0.00;;;26.40;38.30;;;;;;4994969;28;20244;-40
2024/02/19 03:05:27;;;;;;;0.00;0.00;;;26.40;38.30;;;;;;4995753;28;20198;-42
2024/02/19 03:07:57;;;;;;;0.00;0.00;;;26.50;38.40;;;;;;5013211;28;20197;-40
2024/02/19 03:10:28;;;;;;;0.00;0.00;;;26.50;38.40;;;;;;5013896;28;20681;-42
2024/02/19 03:13:01;;;;;;;0.00;0.00;;;26.50;38.40;;;;;;5014468;28;20675;-41
2024/02/19 03:15:31;;;;;;;0.00;0.00;;;26.50;38.40;;;;;;5014707;28;20201;-40
2024/02/19 03:18:02;;;;;;;0.00;0.00;;;26.60;38.50;;;;;;5012149;28;20189;-40
2024/02/19 03:20:33;;;;;;;0.00;0.00;;;26.60;38.50;;;;;;5014620;28;20229;-40
2024/02/19 03:23:04;;;;;;;0.00;0.00;;;26.60;38.50;;;;;;5014676;28;20204;-40
2024/02/19 03:25:35;;;;;;;0.00;0.00;;;26.60;38.50;;;;;;5014563;28;20232;-40
2024/02/19 03:28:11;;;;;;;0.00;0.00;;;26.70;38.50;;;;;;5014338;28;20287;-42
2024/02/19 03:30:41;;;;;;;0.00;0.00;;;26.70;38.50;;;;;;5014298;28;20228;-41
2024/02/19 03:33:12;;;;;;;0.00;0.00;;;26.80;38.60;;;;;;5014415;28;20199;-42
2024/02/19 03:35:43;;;;;;;0.00;0.00;;;26.80;38.60;;;;;;5014102;28;20612;-41
2024/02/19 03:38:13;;;;;;;0.00;0.00;;;26.80;38.60;;;;;;5014157;28;20201;-43
2024/02/19 03:40:44;;;;;;;0.00;0.00;;;26.80;38.60;;;;;;5014321;28;20259;-41
2024/02/19 03:43:17;;;;;;;0.00;0.00;;;26.90;38.70;;;;;;5014572;28;20208;-40
2024/02/19 03:45:50;;;;;;;0.00;0.00;;;26.90;38.70;;;;;;5014342;28;20234;-41
2024/02/19 03:48:21;;;;;;;0.00;0.00;;;26.90;38.70;;;;;;5014247;28;20197;-40
2024/02/19 03:50:51;;;;;;;0.00;0.00;;;27.00;38.70;;;;;;5013567;28;20833;-44
2024/02/19 03:53:22;;;;;;;0.00;0.00;;;27.00;38.90;;;;;;5012201;28;20786;-45
2024/02/19 03:55:54;;;;;;;0.00;0.00;;;27.00;38.90;;;;;;5012153;28;20431;-42
2024/02/19 03:58:27;;;;;;;0.00;0.00;;;27.30;39.30;;;;;;5009437;28;20889;-41
2024/02/19 04:00:58;;;;;;;0.00;0.00;;;27.70;38.20;;;;;;5012860;28;20464;-40
2024/02/19 04:03:28;;;;;;;0.00;0.00;;;28.00;37.60;;;;;;5013094;28;20213;-42
2024/02/19 04:05:59;;;;;;;0.00;0.00;;;28.20;37.70;;;;;;5008185;28;20205;-44
2024/02/19 04:08:30;;;;;;;0.00;0.00;;;28.30;37.50;;;;;;5006922;28;20211;-42
2024/02/19 04:11:00;;;;;;;0.00;0.00;;;28.30;37.40;;;;;;5009228;28;20239;-42
2024/02/19 04:13:33;;;;;;;0.00;0.00;;;28.30;37.40;;;;;;5010087;28;20212;-44
2024/02/19 04:16:03;;;;;;;0.00;0.00;;;28.20;37.40;;;;;;5008035;28;20214;-42
2024/02/19 04:18:34;;;;;;;0.00;0.00;;;28.10;37.50;;;;;;5009470;28;20677;-42
2024/02/19 04:21:05;;;;;;;0.00;0.00;;;28.00;37.50;;;;;;5019942;28;20207;-42
2024/02/19 04:23:35;;;;;;;0.00;0.00;;;28.00;37.50;;;;;;5012558;28;20207;-42
2024/02/19 04:26:06;;;;;;;0.00;0.00;;;28.00;37.50;;;;;;5009651;28;20212;-43
2024/02/19 04:28:39;;;;;;;0.00;0.00;;;27.90;37.50;;;;;;5008888;28;20778;-42
2024/02/19 04:31:09;;;;;;;0.00;0.00;;;27.90;37.70;;;;;;5009199;28;20235;-43
2024/02/19 04:33:40;;;;;;;0.00;0.00;;;27.90;37.60;;;;;;5018177;28;20676;-43
2024/02/19 04:36:11;;;;;;;0.00;0.00;;;27.90;37.60;;;;;;5006854;28;20204;-42
2024/02/19 04:38:42;;;;;;;0.00;0.00;;;27.90;37.60;;;;;;5008420;28;20232;-43
2024/02/19 04:41:13;;;;;;;0.00;0.00;;;28.00;37.60;;;;;;5009255;28;20637;-42
2024/02/19 04:43:45;;;;;;;0.00;0.00;;;27.90;37.50;;;;;;5009026;28;20553;-40
2024/02/19 04:46:16;;;;;;;0.00;0.00;;;27.90;37.40;;;;;;5009194;28;20204;-41
2024/02/19 04:48:46;;;;;;;0.00;0.00;;;28.00;37.40;;;;;;5026397;28;20242;-41
2024/02/19 04:51:17;;;;;;;0.00;0.00;;;28.00;38.00;;;;;;5028193;28;20232;-41
2024/02/19 04:53:48;;;;;;;0.00;0.00;;;28.00;37.40;;;;;;5027171;28;20200;-41
2024/02/19 04:56:18;;;;;;;0.00;0.00;;;28.00;37.20;;;;;;5027958;28;20204;-41
2024/02/19 04:58:51;;;;;;;0.00;0.00;;;28.10;37.20;;;;;;5028235;28;20235;-42
2024/02/19 05:01:22;;;;;;;0.00;0.00;;;28.10;37.10;;;;;;5019440;28;20250;-42
2024/02/19 05:03:54;;;;;;;0.00;0.00;;;28.10;37.10;;;;;;5009441;28;20637;-41
2024/02/19 05:06:25;;;;;;;0.00;0.00;;;28.10;37.00;;;;;;5008624;28;20263;-41
2024/02/19 05:08:55;;;;;;;0.00;0.00;;;28.20;37.60;;;;;;5007889;28;20224;-42
2024/02/19 05:11:26;;;;;;;0.00;0.00;;;28.20;37.00;;;;;;5008893;28;20228;-42
2024/02/19 05:13:59;;;;;;;0.00;0.00;;;28.20;36.90;;;;;;5012323;28;20207;-41
2024/02/19 05:16:29;;;;;;;0.00;0.00;;;28.20;36.90;;;;;;5025568;28;20205;-43
2024/02/19 05:19:01;;;;;;;0.00;0.00;;;28.30;37.00;;;;;;5005411;28;20212;-41
2024/02/19 05:21:33;;;;;;;0.00;0.00;;;28.30;37.70;;;;;;5008543;28;20197;-41
2024/02/19 05:24:03;;;;;;;0.00;0.00;;;28.40;37.10;;;;;;5007752;28;20320;-41
2024/02/19 05:26:34;;;;;;;0.00;0.00;;;28.30;37.10;;;;;;5008133;28;20208;-41
2024/02/19 05:29:08;;;;;;;0.00;0.00;;;28.40;37.20;;;;;;5019720;28;20235;-42
2024/02/19 05:31:39;;;;;;;0.00;0.00;;;28.40;37.10;;;;;;5027740;28;21072;-41
2024/02/19 05:34:10;;;;;;;0.00;0.00;;;28.40;37.10;;;;;;5028043;28;20204;-41
2024/02/19 05:36:41;;;;;;;0.00;0.00;;;28.40;37.10;;;;;;5011249;28;20220;-42
2024/02/19 05:39:12;;;;;;;0.00;0.00;;;28.50;37.20;;;;;;5006253;28;20503;-44
2024/02/19 05:41:42;;;;;;;0.00;0.00;;;28.50;37.30;;;;;;5015483;28;20280;-43
2024/02/19 05:44:15;;;;;;;0.00;0.00;;;28.50;37.20;;;;;;5028106;28;20610;-42
2024/02/19 05:46:46;;;;;;;0.00;0.00;;;28.50;37.20;;;;;;5027888;28;20204;-42
2024/02/19 05:49:17;;;;;;;0.00;0.00;;;28.60;37.30;;;;;;5027599;28;20311;-41
2024/02/19 05:51:47;;;;;;;0.00;0.00;;;28.60;37.20;;;;;;5027866;28;20310;-41
2024/02/19 05:54:18;;;;;;;0.00;0.00;;;28.60;37.20;;;;;;5027437;28;20200;-41
2024/02/19 05:56:49;;;;;;;0.00;0.00;;;28.70;37.20;;;;;;5026953;28;20258;-41
2024/02/19 05:59:21;;;;;;;0.00;0.00;;;28.70;37.20;;;;;;5027427;28;20227;-45
2024/02/19 06:01:52;;;;;;;0.00;0.00;;;28.70;37.30;;;;;;5020623;28;20208;-44
2024/02/19 06:04:23;;;;;;;0.00;0.00;;;28.70;37.30;;;;;;4987517;28;20201;-41
2024/02/19 06:06:53;;;;;;;0.00;0.00;;;28.70;37.30;;;;;;4996645;28;20205;-43
2024/02/19 06:09:24;;;;;;;0.00;0.00;;;28.80;37.40;;;;;;5009325;28;20220;-40
2024/02/19 06:11:55;;;;;;;0.00;0.00;;;28.80;37.40;;;;;;5026920;28;20231;-47
2024/02/19 06:14:28;;;;;;;0.00;0.00;;;28.80;37.30;;;;;;5027600;28;20196;-41
2024/02/19 06:16:58;;;;;;;0.00;0.00;;;28.90;37.30;;;;;;5026530;28;20283;-42
2024/02/19 06:19:29;;;;;;;0.00;0.00;;;28.90;37.30;;;;;;5027475;28;20242;-41
2024/02/19 06:22:00;;;;;;;0.00;0.00;;;28.90;37.20;;;;;;5018061;28;20619;-42
2024/02/19 06:24:30;;;;;;;0.00;0.00;;;28.90;37.90;;;;;;4988063;28;20197;-41
2024/02/19 06:27:01;;;;;;;0.00;0.00;;;28.90;37.30;;;;;;4987438;28;20648;-42
2024/02/19 06:29:33;;;;;;;0.00;0.00;;;28.90;37.20;;;;;;4987826;28;20245;-42
2024/02/19 06:32:04;;;;;;;0.00;0.00;;;29.00;37.30;;;;;;4991037;28;20702;-44
2024/02/19 06:34:35;;;;;;;0.00;0.00;;;29.00;37.30;;;;;;5008728;28;20192;-41
2024/02/19 06:37:06;;;;;;;0.00;0.00;;;29.00;37.30;;;;;;5016154;28;20239;-43
2024/02/19 06:39:39;;;;;;;0.00;0.00;;;29.00;37.30;;;;;;5012180;28;20315;-44
2024/02/19 06:42:10;;;;;;;0.00;0.00;;;29.00;37.30;;;;;;5011860;28;20197;-41
2024/02/19 06:44:42;;;;;;;0.00;0.00;;;29.10;37.30;;;;;;5011048;28;20201;-43
2024/02/19 06:47:13;;;;;;;0.00;0.00;;;29.00;37.20;;;;;;5011362;28;20200;-41
2024/02/19 06:49:44;;;;;;;0.00;0.00;;;29.10;37.30;;;;;;5017724;28;20271;-44
2024/02/19 06:52:15;;;;;;;0.00;0.00;;;29.10;37.30;;;;;;5014686;28;20225;-41
2024/02/19 06:54:45;;;;;;;0.00;0.00;;;29.10;37.20;;;;;;5014726;28;20197;-41
2024/02/19 06:57:16;;;;;;;0.00;0.00;;;29.10;37.30;;;;;;5014656;28;20200;-41
2024/02/19 06:59:48;;;;;;;0.00;0.00;;;29.10;37.30;;;;;;5015076;28;20680;-41
2024/02/19 07:02:20;;;;;;;0.00;0.00;;;29.10;37.30;;;;;;5014479;28;20208;-41
2024/02/19 07:04:54;;;;;;;0.00;0.00;;;29.10;37.30;;;;;;5014810;28;20193;-42
2024/02/19 07:07:25;;;;;;;0.00;0.00;;;29.10;37.20;;;;;;5014553;28;20684;-41
2024/02/19 07:09:56;;;;;;;0.00;0.00;;;29.10;36.90;;;;;;5013891;28;20221;-41
2024/02/19 07:12:27;;;;;;;0.00;0.00;;;29.10;36.60;;;;;;5014786;28;20324;-41
2024/02/19 07:14:59;;;;;;;0.00;0.00;;;29.10;36.30;;;;;;5014697;28;20243;-42
2024/02/19 07:17:31;;;;;;;0.00;0.00;;;29.10;36.10;;;;;;5013831;28;20289;-42
2024/02/19 07:20:03;;;;;;;0.00;0.00;;;29.00;36.00;;;;;;5014054;28;20216;-41
2024/02/19 07:22:33;;;;;;;0.00;0.00;;;29.00;36.40;;;;;;5012899;28;20971;-41
2024/02/19 07:25:04;;;;;;;0.00;0.00;;;29.00;35.70;;;;;;5014622;28;20641;-41
2024/02/19 07:27:35;;;;;;;0.00;0.00;;;28.90;35.60;;;;;;5014350;28;20284;-42
2024/02/19 07:30:09;;;;;;;0.00;0.00;;;28.90;35.70;;;;;;5014336;28;20689;-41
2024/02/19 07:32:39;;;;;;;0.00;0.00;;;28.90;35.70;;;;;;5013907;28;20235;-41
2024/02/19 07:35:10;;;;;;;0.00;0.00;;;28.90;35.60;;;;;;5013852;28;20204;-52
2024/02/19 07:37:41;;;;;;;0.00;0.00;;;28.80;35.20;;;;;;5013815;28;20216;-48
2024/02/19 07:40:12;;;;;;;0.00;0.00;;;28.70;33.90;;;;;;5014085;28;20216;-46
2024/02/19 07:42:43;;;;;;;0.00;0.00;;;28.70;33.40;;;;;;5014064;28;20197;-47
2024/02/19 07:45:16;;;;;;;0.00;0.00;;;28.60;32.90;;;;;;5013122;28;20210;-40
2024/02/19 07:47:46;;;;;;;0.00;0.00;;;28.50;32.80;;;;;;5011369;28;20228;-41
2024/02/19 07:50:18;;;;;;;0.00;0.00;;;28.40;33.00;;;;;;5007754;28;20236;-41
2024/02/19 07:52:49;;;;;;;0.00;0.00;;;28.40;33.30;;;;;;5009593;28;20255;-40
2024/02/19 07:55:19;;;;;;;0.00;0.00;;;28.40;33.50;;;;;;5010437;28;20204;-45
2024/02/19 07:57:50;;;;;;;0.00;0.00;;;28.30;33.50;;;;;;5009997;28;20212;-41
2024/02/19 08:00:23;;;;;;;0.00;0.00;;;28.30;33.40;;;;;;5011117;28;20225;-41
2024/02/19 08:02:54;;;;;;;0.00;0.00;;;28.30;33.50;;;;;;5013582;28;20205;-41
2024/02/19 08:05:24;;;;;;;0.00;0.00;;;28.30;33.60;;;;;;4989325;28;20197;-41
2024/02/19 08:07:55;;;;;;;0.00;0.00;;;28.30;33.80;;;;;;5008194;28;20208;-44
2024/02/19 08:10:26;;;;;;;0.00;0.00;;;28.20;33.90;;;;;;5009066;28;20217;-41
2024/02/19 08:12:56;;;;;;;0.00;0.00;;;28.30;34.20;;;;;;5010497;28;20233;-41
2024/02/19 08:15:29;;;;;;;0.00;0.00;;;28.20;34.40;;;;;;5025466;28;20196;-40
2024/02/19 08:17:59;;;;;;;0.00;0.00;;;28.20;34.60;;;;;;5029313;28;20204;-42
2024/02/19 08:20:30;;;;;;;0.00;0.00;;;28.20;34.70;;;;;;5028805;28;20588;-41
2024/02/19 08:23:01;;;;;;;0.00;0.00;;;28.10;34.90;;;;;;5002377;28;20210;-41
2024/02/19 08:25:31;;;;;;;0.00;0.00;;;28.10;35.00;;;;;;4989865;28;20201;-41
2024/02/19 08:28:03;;;;;;;0.00;0.00;;;28.10;35.20;;;;;;5027266;28;20563;-41
2024/02/19 08:30:36;;;;;;;0.00;0.00;;;28.10;35.40;;;;;;5028632;28;20290;-47
2024/02/19 08:33:07;;;;;;;0.00;0.00;;;28.00;35.50;;;;;;5028247;28;20228;-40
2024/02/19 08:35:37;;;;;;;0.00;0.00;;;28.10;35.70;;;;;;5002468;28;20606;-43
2024/02/19 08:38:09;;;;;;;0.00;0.00;;;28.00;35.80;;;;;;4989410;28;20228;-41
2024/02/19 08:40:40;;;;;;;0.00;0.00;;;28.00;35.90;;;;;;5021137;28;20207;-45
2024/02/19 08:43:11;;;;;;;0.00;0.00;;;28.00;36.10;;;;;;5023949;28;20825;-41
2024/02/19 08:45:43;;;;;;;0.00;0.00;;;27.90;36.10;;;;;;5008590;28;20263;-43
2024/02/19 08:48:14;;;;;;;0.00;0.00;;;27.90;36.30;;;;;;5009311;28;20202;-43
2024/02/19 08:50:45;;;;;;;0.00;0.00;;;27.90;36.50;;;;;;5001399;28;20200;-41
2024/02/19 08:53:16;;;;;;;0.00;0.00;;;27.80;36.50;;;;;;5010040;28;20333;-41
2024/02/19 08:55:47;;;;;;;0.00;0.00;;;27.80;36.70;;;;;;4995318;28;20213;-41
2024/02/19 08:58:17;;;;;;;0.00;0.00;;;27.80;36.80;;;;;;4988594;28;20208;-41
2024/02/19 09:00:51;;;;;;;0.00;0.00;;;27.80;36.90;;;;;;4987765;28;20577;-41
2024/02/19 09:03:21;;;;;;;0.00;0.00;;;27.80;37.00;;;;;;4988109;28;20209;-41
2024/02/19 09:05:52;;;;;;;0.00;0.00;;;27.70;37.00;;;;;;4996101;28;20211;-41
2024/02/19 09:08:23;;;;;;;0.00;0.00;;;27.70;37.10;;;;;;5008333;28;20212;-42
2024/02/19 09:10:53;;;;;;;0.00;0.00;;;27.70;37.20;;;;;;5007355;28;20200;-41
2024/02/19 09:13:24;;;;;;;0.00;0.00;;;27.60;37.30;;;;;;5009288;28;20251;-42
2024/02/19 09:15:56;;;;;;;0.00;0.00;;;27.60;37.30;;;;;;5008935;28;20209;-44
2024/02/19 09:18:28;;;;;;;0.00;0.00;;;27.60;37.40;;;;;;5008553;28;20197;-42
2024/02/19 09:20:59;;;;;;;0.00;0.00;;;27.50;37.50;;;;;;5020059;28;20557;-42
2024/02/19 09:23:29;;;;;;;0.00;0.00;;;27.50;37.50;;;;;;5028093;28;20208;-43
2024/02/19 09:26:00;;;;;;;0.00;0.00;;;27.50;37.60;;;;;;5028392;28;20196;-41
2024/02/19 09:28:30;;;;;;;0.00;0.00;;;27.50;37.70;;;;;;5027647;28;20219;-41
2024/02/19 09:31:03;;;;;;;0.00;0.00;;;27.40;37.70;;;;;;5028063;28;20218;-41
2024/02/19 09:33:34;;;;;;;0.00;0.00;;;27.40;37.80;;;;;;5027942;28;20738;-42
2024/02/19 09:36:06;;;;;;;0.00;0.00;;;27.40;37.90;;;;;;5023979;28;20209;-46
2024/02/19 09:38:37;;;;;;;0.00;0.00;;;27.30;38.60;;;;;;5008188;28;20256;-41
2024/02/19 09:41:08;;;;;;;0.00;0.00;;;27.30;38.00;;;;;;5007890;28;20208;-41
2024/02/19 09:43:38;;;;;;;0.00;0.00;;;27.20;38.00;;;;;;5008922;28;20200;-46
2024/02/19 09:46:18;;;;;;;0.00;0.00;;;27.20;38.10;;;;;;5008550;28;20211;-42
2024/02/19 09:48:51;;;;;;;0.00;0.00;;;27.20;38.20;;;;;;5016412;28;20212;-42
2024/02/19 09:51:22;;;;;;;0.00;0.00;;;27.10;38.80;;;;;;5008544;28;20204;-44
2024/02/19 09:53:53;;;;;;;0.00;0.00;;;27.10;38.20;;;;;;5008638;28;20571;-40
2024/02/19 09:56:26;;;;;;;0.00;0.00;;;27.00;38.20;;;;;;5007943;28;20204;-42
2024/02/19 09:58:57;;;;;;;0.00;0.00;;;27.00;38.30;;;;;;5007804;28;20303;-41
2024/02/19 10:01:29;;;;;;;0.00;0.00;;;27.00;38.30;;;;;;5014581;28;20208;-40
2024/02/19 10:04:04;;;;;;;0.00;0.00;;;27.00;38.40;;;;;;5026923;28;20572;-42
2024/02/19 10:06:37;;;;;;;0.00;0.00;;;27.00;38.50;;;;;;5020181;28;20251;-42
2024/02/19 10:09:08;;;;;;;0.00;0.00;;;26.90;38.50;;;;;;4996411;28;20220;-41
2024/02/19 10:11:39;;;;;;;0.00;0.00;;;26.90;38.50;;;;;;4988635;28;20243;-41
2024/02/19 10:14:10;;;;;;;0.00;0.00;;;26.80;38.50;;;;;;5011654;28;20222;-43
2024/02/19 10:16:50;;;;;;;0.00;0.00;;;26.80;39.20;;;;;;5027974;28;20356;-42
2024/02/19 10:19:21;;;;;;;0.00;0.00;;;26.80;38.70;;;;;;5026937;28;20215;-42
2024/02/19 10:21:52;;;;;;;0.00;0.00;;;26.70;38.60;;;;;;5027501;28;20200;-42
2024/02/19 10:24:23;;;;;;;0.00;0.00;;;26.70;38.70;;;;;;5027132;28;20265;-43
2024/02/19 10:26:53;;;;;;;0.00;0.00;;;26.60;38.70;;;;;;5026973;28;20204;-42
2024/02/19 10:29:24;;;;;;;0.00;0.00;;;26.60;38.80;;;;;;4995002;28;21034;-49
2024/02/19 10:31:56;;;;;;;0.00;0.00;;;26.50;38.80;;;;;;4988071;28;20652;-48
2024/02/19 10:34:27;;;;;;;0.00;0.00;;;26.50;38.80;;;;;;4988689;28;20244;-52
2024/02/19 10:36:58;;;;;;;0.00;0.00;;;26.50;38.90;;;;;;4998352;28;20201;-46
2024/02/19 10:39:31;;;;;;;0.00;0.00;;;26.50;38.90;;;;;;5007253;28;20770;-43
2024/02/19 10:42:02;;;;;;;0.00;0.00;;;26.40;38.90;;;;;;5010125;28;20736;-42
2024/02/19 10:44:34;;;;;;;0.00;0.00;;;26.40;39.00;;;;;;4992334;28;20209;-41
2024/02/19 10:47:08;;;;;;;0.00;0.00;;;26.40;39.00;;;;;;4988263;28;20248;-44
2024/02/19 10:49:39;;;;;;;0.00;0.00;;;26.40;39.00;;;;;;4988035;28;20736;-43
2024/02/19 10:52:11;;;;;;;0.00;0.00;;;26.30;39.00;;;;;;4987957;28;20228;-43
2024/02/19 10:54:45;;;;;;;0.00;0.00;;;26.30;39.10;;;;;;5026117;28;20250;-43
2024/02/19 10:57:21;;;;;;;0.00;0.00;;;26.30;39.10;;;;;;5027114;28;20291;-46
2024/02/19 11:00:06;;;;;;;0.00;0.00;;;26.20;39.10;;;;;;5026972;28;20227;-41
2024/02/19 11:02:38;;;;;;;0.00;0.00;;;26.20;39.10;;;;;;5017878;28;20439;-41
2024/02/19 11:05:12;;;;;;;0.00;0.00;;;26.20;39.10;;;;;;5010304;28;20200;-40
2024/02/19 11:07:43;;;;;;;0.00;0.00;;;26.20;39.20;;;;;;5011571;28;20201;-41
2024/02/19 11:10:14;;;;;;;0.00;0.00;;;26.10;39.20;;;;;;5010972;28;20223;-44
2024/02/19 11:12:45;;;;;;;0.00;0.00;;;26.10;39.30;;;;;;5010869;28;20228;-42
2024/02/19 11:15:21;;;;;;;0.00;0.00;;;26.00;39.30;;;;;;5011146;28;20196;-41
2024/02/19 11:17:58;;;;;;;0.00;0.00;;;26.00;39.40;;;;;;5014661;28;20295;-43
2024/02/19 11:20:28;;;;;;;0.00;0.00;;;26.00;39.40;;;;;;5012302;28;20267;-45
2024/02/19 11:23:00;;;;;;;0.00;0.00;;;26.00;39.40;;;;;;5014711;28;20594;-43
2024/02/19 11:25:31;;;;;;;0.00;0.00;;;25.90;39.40;;;;;;5014516;28;20197;-44
2024/02/19 11:28:02;;;;;;;0.00;0.00;;;25.90;39.50;;;;;;5014429;28;20197;-41
2024/02/19 11:30:33;;;;;;;0.00;0.00;;;25.90;39.60;;;;;;5014129;28;20578;-42
2024/02/19 11:33:06;;;;;;;0.00;0.00;;;25.80;39.60;;;;;;5014569;28;20308;-43
2024/02/19 11:35:38;;;;;;;0.00;0.00;;;25.80;39.60;;;;;;5014587;28;20197;-43
2024/02/19 11:38:09;;;;;;;0.00;0.00;;;25.80;39.70;;;;;;5007615;28;20193;-43
2024/02/19 11:40:39;;;;;;;0.00;0.00;;;25.80;39.70;;;;;;5013924;28;20607;-41
2024/02/19 11:43:11;;;;;;;0.00;0.00;;;25.80;39.80;;;;;;5014571;28;20204;-41
2024/02/19 11:45:42;;;;;;;0.00;0.00;;;25.70;39.80;;;;;;5013717;28;20252;-40
2024/02/19 11:48:14;;;;;;;0.00;0.00;;;25.70;39.80;;;;;;5013606;28;20669;-41
2024/02/19 11:50:46;;;;;;;0.00;0.00;;;25.70;39.80;;;;;;5013909;28;20716;-40
2024/02/19 11:53:16;;;;;;;0.00;0.00;;;25.70;39.90;;;;;;5013671;28;20228;-41
2024/02/19 11:55:47;;;;;;;0.00;0.00;;;25.60;39.90;;;;;;5013863;28;20207;-40
2024/02/19 11:58:18;;;;;;;0.00;0.00;;;25.60;40.00;;;;;;5005838;28;20193;-40
2024/02/19 12:00:51;;;;;;;0.00;0.00;;;25.60;40.00;;;;;;5001114;28;20194;-41
2024/02/19 12:03:26;;;;;;;0.00;0.00;;;25.50;39.90;;;;;;5002658;28;20197;-41
2024/02/19 12:05:58;;;;;;;0.00;0.00;;;25.50;40.00;;;;;;5002500;28;20649;-40
2024/02/19 12:08:32;;;;;;;0.00;0.00;;;25.50;40.00;;;;;;5002530;28;20190;-41
2024/02/19 12:11:03;;;;;;;0.00;0.00;;;25.50;40.00;;;;;;5002687;28;20244;-41
2024/02/19 12:13:35;;;;;;;0.00;0.00;;;25.50;40.10;;;;;;5003319;28;20762;-40
2024/02/19 12:16:06;;;;;;;0.00;0.00;;;25.40;40.10;;;;;;5001983;28;20182;-40
2024/02/19 12:18:40;;;;;;;0.00;0.00;;;25.40;40.10;;;;;;5002951;28;20212;-40
2024/02/19 12:21:10;;;;;;;0.00;0.00;;;25.40;40.10;;;;;;5003845;28;20247;-40
2024/02/19 12:23:42;;;;;;;0.00;0.00;;;25.40;40.10;;;;;;5002129;28;20185;-40
2024/02/19 12:26:13;;;;;;;0.00;0.00;;;25.30;40.10;;;;;;5002595;28;20268;-40
2024/02/19 12:28:43;;;;;;;0.00;0.00;;;25.30;40.10;;;;;;5001847;28;20222;-40
2024/02/19 12:31:14;;;;;;;0.00;0.00;;;25.30;40.20;;;;;;5003386;28;20196;-40
2024/02/19 12:33:47;;;;;;;0.00;0.00;;;25.30;40.20;;;;;;5003878;28;20679;-41
2024/02/19 12:36:18;;;;;;;0.00;0.00;;;25.30;40.20;;;;;;5002784;28;20594;-41
2024/02/19 12:38:51;;;;;;;0.00;0.00;;;25.20;40.20;;;;;;5001243;28;20217;-41
2024/02/19 12:41:21;;;;;;;0.10;0.10;;;25.20;40.30;;;;;;5001586;28;20193;-40
2024/02/19 12:43:52;;;;;;;0.00;0.00;;;25.20;40.30;;;;;;5001975;28;20198;-41
2024/02/19 12:46:24;;;;;;;0.00;0.00;;;25.10;40.30;;;;;;5003893;28;21271;-41
2024/02/19 12:48:58;;;;;;;0.00;0.00;;;25.20;40.40;;;;;;5002311;28;20213;-40
2024/02/19 12:51:35;;;;;;;0.05;0.05;;;25.10;40.40;;;;;;5001419;28;20280;-41
2024/02/19 12:54:06;;;;;;;0.00;0.00;;;25.10;40.40;;;;;;5001526;28;20580;-41
2024/02/19 12:56:37;;;;;;;0.00;0.00;;;25.10;40.40;;;;;;5002350;28;20220;-41
2024/02/19 12:59:08;;;;;;;0.10;0.10;;;25.10;40.40;;;;;;5003424;28;20689;-43
2024/02/19 13:01:39;;;;;;;0.00;0.00;;;25.00;40.40;;;;;;5002851;28;20248;-41
2024/02/19 13:04:11;;;;;;;0.00;0.00;;;25.00;40.50;;;;;;5000963;28;20555;-41
2024/02/19 13:06:42;;;;;;;0.10;0.10;;;25.00;40.50;;;;;;5001058;28;20199;-41
2024/02/19 13:09:13;;;;;;;0.00;0.00;;;25.00;40.50;;;;;;5001813;28;20214;-41